sensor_id;sensor_type;location;lat;lon;timestamp;pressure;altitude;pressure_sealevel;temperature;humidity
8705;BME280;4389;41.932;25.904;2023-05-09T00:01:06;100897.00;;;13.84;100.00
8705;BME280;4389;41.932;25.904;2023-05-09T00:03:33;100896.69;;;13.87;100.00
8705;BME280;4389;41.932;25.904;2023-05-09T00:06:00;100896.94;;;14.03;100.00
8705;BME280;4389;41.932;25.904;2023-05-09T00:08:27;100892.66;;;14.10;100.00
8705;BME280;4389;41.932;25.904;2023-05-09T00:10:54;100893.50;;;14.20;100.00
8705;BME280;4389;41.932;25.904;2023-05-09T00:13:22;100899.19;;;13.98;100.00
8705;BME280;4389;41.932;25.904;2023-05-09T00:15:49;100897.66;;;13.95;100.00
8705;BME280;4389;41.932;25.904;2023-05-09T00:18:18;100888.34;;;13.82;100.00
8705;BME280;4389;41.932;25.904;2023-05-09T00:20:45;100890.03;;;13.83;100.00
8705;BME280;4389;41.932;25.904;2023-05-09T00:23:11;100885.28;;;13.77;100.00
8705;BME280;4389;41.932;25.904;2023-05-09T00:25:38;100893.34;;;13.85;100.00
8705;BME280;4389;41.932;25.904;2023-05-09T00:28:05;100891.28;;;13.79;100.00
8705;BME280;4389;41.932;25.904;2023-05-09T00:30:34;100898.09;;;13.91;100.00
8705;BME280;4389;41.932;25.904;2023-05-09T00:33:01;100898.56;;;13.77;100.00
8705;BME280;4389;41.932;25.904;2023-05-09T00:35:27;100906.19;;;13.53;100.00
8705;BME280;4389;41.932;25.904;2023-05-09T00:37:56;100896.09;;;13.66;100.00
8705;BME280;4389;41.932;25.904;2023-05-09T00:40:24;100891.75;;;13.65;100.00
8705;BME280;4389;41.932;25.904;2023-05-09T00:42:50;100891.84;;;13.73;100.00
8705;BME280;4389;41.932;25.904;2023-05-09T00:45:17;100900.91;;;13.89;100.00
8705;BME280;4389;41.932;25.904;2023-05-09T00:47:45;100897.50;;;13.97;100.00
8705;BME280;4389;41.932;25.904;2023-05-09T00:50:12;100891.88;;;14.00;100.00
8705;BME280;4389;41.932;25.904;2023-05-09T00:52:40;100891.06;;;13.99;100.00
8705;BME280;4389;41.932;25.904;2023-05-09T00:55:07;100893.00;;;13.97;100.00
8705;BME280;4389;41.932;25.904;2023-05-09T00:57:34;100899.09;;;13.90;100.00
8705;BME280;4389;41.932;25.904;2023-05-09T01:00:02;100895.63;;;14.07;100.00
8705;BME280;4389;41.932;25.904;2023-05-09T01:02:29;100892.47;;;13.94;100.00
8705;BME280;4389;41.932;25.904;2023-05-09T01:04:58;100900.06;;;13.89;100.00
8705;BME280;4389;41.932;25.904;2023-05-09T01:07:29;100900.94;;;13.80;100.00
8705;BME280;4389;41.932;25.904;2023-05-09T01:10:04;100898.34;;;13.61;100.00
8705;BME280;4389;41.932;25.904;2023-05-09T01:12:38;100900.97;;;13.70;100.00
8705;BME280;4389;41.932;25.904;2023-05-09T01:15:11;100892.84;;;13.72;100.00
8705;BME280;4389;41.932;25.904;2023-05-09T01:17:47;100899.38;;;13.87;100.00
8705;BME280;4389;41.932;25.904;2023-05-09T01:20:22;100899.81;;;13.82;100.00
8705;BME280;4389;41.932;25.904;2023-05-09T01:22:54;100895.03;;;13.86;100.00
8705;BME280;4389;41.932;25.904;2023-05-09T01:25:37;100900.13;;;13.70;100.00
8705;BME280;4389;41.932;25.904;2023-05-09T01:28:13;100900.66;;;13.83;100.00
8705;BME280;4389;41.932;25.904;2023-05-09T01:30:45;100900.41;;;13.67;100.00
8705;BME280;4389;41.932;25.904;2023-05-09T01:33:16;100901.25;;;13.77;100.00
8705;BME280;4389;41.932;25.904;2023-05-09T01:35:45;100903.22;;;13.75;100.00
8705;BME280;4389;41.932;25.904;2023-05-09T01:38:18;100909.00;;;13.88;100.00
8705;BME280;4389;41.932;25.904;2023-05-09T01:40:50;100904.94;;;13.93;100.00
8705;BME280;4389;41.932;25.904;2023-05-09T01:43:19;100903.69;;;13.88;100.00
8705;BME280;4389;41.932;25.904;2023-05-09T01:45:49;100906.34;;;13.88;100.00
8705;BME280;4389;41.932;25.904;2023-05-09T01:48:17;100907.75;;;13.92;100.00
8705;BME280;4389;41.932;25.904;2023-05-09T01:50:45;100909.31;;;13.85;100.00
8705;BME280;4389;41.932;25.904;2023-05-09T01:53:13;100900.97;;;13.70;100.00
8705;BME280;4389;41.932;25.904;2023-05-09T01:55:42;100906.81;;;13.74;100.00
8705;BME280;4389;41.932;25.904;2023-05-09T01:58:10;100912.13;;;13.83;100.00
8705;BME280;4389;41.932;25.904;2023-05-09T02:00:37;100909.38;;;13.66;100.00
8705;BME280;4389;41.932;25.904;2023-05-09T02:03:07;100913.13;;;13.73;100.00
8705;BME280;4389;41.932;25.904;2023-05-09T02:05:35;100913.31;;;13.62;100.00
8705;BME280;4389;41.932;25.904;2023-05-09T02:08:03;100909.94;;;13.60;100.00
8705;BME280;4389;41.932;25.904;2023-05-09T02:10:31;100910.00;;;13.51;100.00
8705;BME280;4389;41.932;25.904;2023-05-09T02:12:58;100909.44;;;13.47;100.00
8705;BME280;4389;41.932;25.904;2023-05-09T02:15:26;100913.59;;;13.59;100.00
8705;BME280;4389;41.932;25.904;2023-05-09T02:17:54;100911.78;;;13.69;100.00
8705;BME280;4389;41.932;25.904;2023-05-09T02:20:23;100916.31;;;13.86;100.00
8705;BME280;4389;41.932;25.904;2023-05-09T02:22:49;100917.41;;;13.93;100.00
8705;BME280;4389;41.932;25.904;2023-05-09T02:25:16;100921.94;;;13.83;100.00
8705;BME280;4389;41.932;25.904;2023-05-09T02:27:45;100927.56;;;13.70;100.00
8705;BME280;4389;41.932;25.904;2023-05-09T02:30:15;100923.09;;;13.71;100.00
8705;BME280;4389;41.932;25.904;2023-05-09T02:32:44;100936.81;;;13.76;100.00
8705;BME280;4389;41.932;25.904;2023-05-09T02:35:14;100935.38;;;13.81;100.00
8705;BME280;4389;41.932;25.904;2023-05-09T02:37:44;100933.56;;;13.82;100.00
8705;BME280;4389;41.932;25.904;2023-05-09T02:40:12;100939.84;;;13.81;100.00
8705;BME280;4389;41.932;25.904;2023-05-09T02:42:40;100937.34;;;13.79;100.00
8705;BME280;4389;41.932;25.904;2023-05-09T02:45:07;100943.09;;;13.75;100.00
8705;BME280;4389;41.932;25.904;2023-05-09T02:47:35;100941.31;;;13.57;100.00
8705;BME280;4389;41.932;25.904;2023-05-09T02:50:03;100940.50;;;13.56;100.00
8705;BME280;4389;41.932;25.904;2023-05-09T02:52:30;100938.25;;;13.61;100.00
8705;BME280;4389;41.932;25.904;2023-05-09T02:54:58;100937.41;;;13.61;100.00
8705;BME280;4389;41.932;25.904;2023-05-09T02:57:25;100938.50;;;13.58;100.00
8705;BME280;4389;41.932;25.904;2023-05-09T02:59:52;100952.47;;;13.79;100.00
8705;BME280;4389;41.932;25.904;2023-05-09T03:02:18;100953.44;;;13.78;100.00
8705;BME280;4389;41.932;25.904;2023-05-09T03:04:45;100946.66;;;13.93;100.00
8705;BME280;4389;41.932;25.904;2023-05-09T03:07:12;100960.53;;;13.96;99.58
8705;BME280;4389;41.932;25.904;2023-05-09T03:09:39;100963.03;;;13.98;98.21
8705;BME280;4389;41.932;25.904;2023-05-09T03:12:07;100963.31;;;13.95;96.38
8705;BME280;4389;41.932;25.904;2023-05-09T03:14:34;100979.88;;;13.89;95.82
8705;BME280;4389;41.932;25.904;2023-05-09T03:17:01;100977.94;;;13.72;95.80
8705;BME280;4389;41.932;25.904;2023-05-09T03:19:27;100979.25;;;13.68;95.95
8705;BME280;4389;41.932;25.904;2023-05-09T03:21:54;100976.56;;;13.68;95.96
8705;BME280;4389;41.932;25.904;2023-05-09T03:24:21;100979.09;;;13.60;97.17
8705;BME280;4389;41.932;25.904;2023-05-09T03:26:48;100975.75;;;13.58;96.76
8705;BME280;4389;41.932;25.904;2023-05-09T03:29:16;100985.25;;;13.70;96.62
8705;BME280;4389;41.932;25.904;2023-05-09T03:31:43;100992.25;;;13.71;96.40
8705;BME280;4389;41.932;25.904;2023-05-09T03:34:10;100998.09;;;13.74;96.84
8705;BME280;4389;41.932;25.904;2023-05-09T03:36:40;101001.75;;;13.83;96.93
8705;BME280;4389;41.932;25.904;2023-05-09T03:39:07;101000.19;;;13.80;96.75
8705;BME280;4389;41.932;25.904;2023-05-09T03:41:34;101010.41;;;13.85;95.89
8705;BME280;4389;41.932;25.904;2023-05-09T03:44:01;101010.72;;;13.82;95.87
8705;BME280;4389;41.932;25.904;2023-05-09T03:46:30;101016.03;;;13.82;95.95
8705;BME280;4389;41.932;25.904;2023-05-09T03:48:56;101012.38;;;13.83;96.40
8705;BME280;4389;41.932;25.904;2023-05-09T03:51:23;101023.56;;;13.86;96.28
8705;BME280;4389;41.932;25.904;2023-05-09T03:53:50;101023.81;;;13.93;95.94
8705;BME280;4389;41.932;25.904;2023-05-09T03:56:17;101029.56;;;13.98;94.95
8705;BME280;4389;41.932;25.904;2023-05-09T03:58:44;101040.63;;;14.03;94.45
8705;BME280;4389;41.932;25.904;2023-05-09T04:01:11;101030.56;;;13.97;95.59
8705;BME280;4389;41.932;25.904;2023-05-09T04:03:39;101034.88;;;13.98;95.48
8705;BME280;4389;41.932;25.904;2023-05-09T04:06:06;101031.13;;;13.91;95.22
8705;BME280;4389;41.932;25.904;2023-05-09T04:08:33;101034.03;;;13.97;94.34
8705;BME280;4389;41.932;25.904;2023-05-09T04:11:00;101035.00;;;14.06;94.81
8705;BME280;4389;41.932;25.904;2023-05-09T04:13:27;101038.09;;;14.01;94.35
8705;BME280;4389;41.932;25.904;2023-05-09T04:15:54;101042.09;;;14.15;94.12
8705;BME280;4389;41.932;25.904;2023-05-09T04:18:21;101042.56;;;14.01;94.80
8705;BME280;4389;41.932;25.904;2023-05-09T04:20:49;101042.53;;;14.10;92.83
8705;BME280;4389;41.932;25.904;2023-05-09T04:23:16;101053.44;;;14.17;91.65
8705;BME280;4389;41.932;25.904;2023-05-09T04:25:42;101050.41;;;14.12;91.11
8705;BME280;4389;41.932;25.904;2023-05-09T04:28:09;101046.75;;;14.13;91.22
8705;BME280;4389;41.932;25.904;2023-05-09T04:30:36;101046.06;;;14.11;92.09
8705;BME280;4389;41.932;25.904;2023-05-09T04:33:03;101049.97;;;14.16;91.17
8705;BME280;4389;41.932;25.904;2023-05-09T04:35:30;101050.94;;;14.15;91.63
8705;BME280;4389;41.932;25.904;2023-05-09T04:37:58;101050.97;;;14.06;91.29
8705;BME280;4389;41.932;25.904;2023-05-09T04:40:25;101055.72;;;14.02;90.64
8705;BME280;4389;41.932;25.904;2023-05-09T04:42:52;101050.28;;;14.04;91.72
8705;BME280;4389;41.932;25.904;2023-05-09T04:45:19;101045.94;;;14.03;91.89
8705;BME280;4389;41.932;25.904;2023-05-09T04:47:46;101052.09;;;13.94;92.30
8705;BME280;4389;41.932;25.904;2023-05-09T04:50:13;101058.53;;;14.01;92.11
8705;BME280;4389;41.932;25.904;2023-05-09T04:52:40;101070.59;;;14.05;92.45
8705;BME280;4389;41.932;25.904;2023-05-09T04:55:09;101069.31;;;14.18;92.62
8705;BME280;4389;41.932;25.904;2023-05-09T04:57:36;101069.28;;;14.28;92.27
8705;BME280;4389;41.932;25.904;2023-05-09T05:00:03;101067.16;;;14.41;91.93
8705;BME280;4389;41.932;25.904;2023-05-09T05:02:32;101072.59;;;14.39;90.05
8705;BME280;4389;41.932;25.904;2023-05-09T05:04:59;101072.16;;;14.44;90.11
8705;BME280;4389;41.932;25.904;2023-05-09T05:07:26;101064.28;;;14.52;89.67
8705;BME280;4389;41.932;25.904;2023-05-09T05:09:52;101063.69;;;14.58;89.72
8705;BME280;4389;41.932;25.904;2023-05-09T05:12:20;101061.75;;;14.60;89.40
8705;BME280;4389;41.932;25.904;2023-05-09T05:14:47;101063.41;;;14.61;89.04
8705;BME280;4389;41.932;25.904;2023-05-09T05:17:14;101067.06;;;14.60;89.29
8705;BME280;4389;41.932;25.904;2023-05-09T05:19:42;101064.50;;;14.68;88.97
8705;BME280;4389;41.932;25.904;2023-05-09T05:22:09;101064.97;;;14.81;88.56
8705;BME280;4389;41.932;25.904;2023-05-09T05:24:36;101071.66;;;14.94;89.02
8705;BME280;4389;41.932;25.904;2023-05-09T05:27:03;101067.94;;;14.78;87.91
8705;BME280;4389;41.932;25.904;2023-05-09T05:29:31;101059.97;;;14.78;87.94
8705;BME280;4389;41.932;25.904;2023-05-09T05:31:58;101068.19;;;14.84;87.79
8705;BME280;4389;41.932;25.904;2023-05-09T05:34:25;101068.72;;;14.88;88.11
8705;BME280;4389;41.932;25.904;2023-05-09T05:36:52;101068.84;;;14.96;88.30
8705;BME280;4389;41.932;25.904;2023-05-09T05:39:18;101071.19;;;14.99;87.46
8705;BME280;4389;41.932;25.904;2023-05-09T05:41:45;101070.22;;;15.00;87.95
8705;BME280;4389;41.932;25.904;2023-05-09T05:44:12;101068.69;;;15.15;87.47
8705;BME280;4389;41.932;25.904;2023-05-09T05:46:40;101067.50;;;15.27;86.86
8705;BME280;4389;41.932;25.904;2023-05-09T05:49:07;101070.44;;;15.51;86.41
8705;BME280;4389;41.932;25.904;2023-05-09T05:51:34;101063.19;;;15.61;84.68
8705;BME280;4389;41.932;25.904;2023-05-09T05:54:01;101070.75;;;15.65;84.99
8705;BME280;4389;41.932;25.904;2023-05-09T05:56:27;101082.31;;;15.74;82.59
8705;BME280;4389;41.932;25.904;2023-05-09T05:58:55;101087.97;;;15.71;82.91
8705;BME280;4389;41.932;25.904;2023-05-09T06:01:21;101078.06;;;15.81;82.59
8705;BME280;4389;41.932;25.904;2023-05-09T06:03:50;101087.34;;;15.77;81.34
8705;BME280;4389;41.932;25.904;2023-05-09T06:06:19;101086.97;;;15.72;82.39
8705;BME280;4389;41.932;25.904;2023-05-09T06:08:46;101080.28;;;15.68;82.16
8705;BME280;4389;41.932;25.904;2023-05-09T06:11:14;101085.53;;;15.77;82.13
8705;BME280;4389;41.932;25.904;2023-05-09T06:13:41;101092.69;;;15.77;83.20
8705;BME280;4389;41.932;25.904;2023-05-09T06:16:08;101094.81;;;15.56;81.89
8705;BME280;4389;41.932;25.904;2023-05-09T06:18:35;101088.75;;;15.46;83.03
8705;BME280;4389;41.932;25.904;2023-05-09T06:21:06;101092.78;;;15.23;83.50
8705;BME280;4389;41.932;25.904;2023-05-09T06:23:32;101085.84;;;15.12;84.91
8705;BME280;4389;41.932;25.904;2023-05-09T06:26:01;101090.47;;;15.10;84.67
8705;BME280;4389;41.932;25.904;2023-05-09T06:28:28;101083.34;;;15.11;84.34
8705;BME280;4389;41.932;25.904;2023-05-09T06:30:55;101091.03;;;15.14;84.26
8705;BME280;4389;41.932;25.904;2023-05-09T06:33:22;101088.34;;;15.14;83.38
8705;BME280;4389;41.932;25.904;2023-05-09T06:35:49;101089.34;;;15.13;82.54
8705;BME280;4389;41.932;25.904;2023-05-09T06:38:17;101085.41;;;15.17;83.56
8705;BME280;4389;41.932;25.904;2023-05-09T06:40:43;101086.69;;;15.13;83.59
8705;BME280;4389;41.932;25.904;2023-05-09T06:43:10;101082.78;;;15.07;84.72
8705;BME280;4389;41.932;25.904;2023-05-09T06:45:37;101080.59;;;15.03;85.93
8705;BME280;4389;41.932;25.904;2023-05-09T06:48:04;101077.53;;;14.98;85.92
8705;BME280;4389;41.932;25.904;2023-05-09T06:50:31;101076.47;;;14.81;87.36
8705;BME280;4389;41.932;25.904;2023-05-09T06:52:58;101075.44;;;14.92;86.91
8705;BME280;4389;41.932;25.904;2023-05-09T06:55:26;101080.09;;;14.90;85.94
8705;BME280;4389;41.932;25.904;2023-05-09T06:57:53;101078.75;;;14.76;86.19
8705;BME280;4389;41.932;25.904;2023-05-09T07:00:21;101078.19;;;14.73;86.57
8705;BME280;4389;41.932;25.904;2023-05-09T07:02:48;101082.25;;;14.77;85.74
8705;BME280;4389;41.932;25.904;2023-05-09T07:05:16;101082.91;;;14.88;85.67
8705;BME280;4389;41.932;25.904;2023-05-09T07:07:43;101091.13;;;14.95;84.17
8705;BME280;4389;41.932;25.904;2023-05-09T07:10:11;101093.25;;;14.91;82.86
8705;BME280;4389;41.932;25.904;2023-05-09T07:12:39;101087.16;;;14.81;84.92
8705;BME280;4389;41.932;25.904;2023-05-09T07:15:07;101090.03;;;14.70;85.21
8705;BME280;4389;41.932;25.904;2023-05-09T07:17:34;101089.84;;;14.72;85.92
8705;BME280;4389;41.932;25.904;2023-05-09T07:20:01;101093.09;;;14.66;87.11
8705;BME280;4389;41.932;25.904;2023-05-09T07:22:29;101096.16;;;14.71;86.49
8705;BME280;4389;41.932;25.904;2023-05-09T07:24:56;101101.19;;;14.74;87.80
8705;BME280;4389;41.932;25.904;2023-05-09T07:27:23;101099.91;;;14.78;86.18
8705;BME280;4389;41.932;25.904;2023-05-09T07:29:51;101099.25;;;14.76;87.71
8705;BME280;4389;41.932;25.904;2023-05-09T07:32:18;101100.91;;;14.77;86.81
8705;BME280;4389;41.932;25.904;2023-05-09T07:34:45;101105.16;;;14.70;87.41
8705;BME280;4389;41.932;25.904;2023-05-09T07:37:12;101099.81;;;14.70;87.43
8705;BME280;4389;41.932;25.904;2023-05-09T07:39:38;101102.91;;;14.75;87.45
8705;BME280;4389;41.932;25.904;2023-05-09T07:42:06;101103.47;;;14.69;87.41
8705;BME280;4389;41.932;25.904;2023-05-09T07:44:32;101106.03;;;14.61;88.73
8705;BME280;4389;41.932;25.904;2023-05-09T07:47:01;101106.88;;;14.52;88.38
8705;BME280;4389;41.932;25.904;2023-05-09T07:49:29;101100.78;;;14.13;88.23
8705;BME280;4389;41.932;25.904;2023-05-09T07:51:56;101108.09;;;14.02;89.82
8705;BME280;4389;41.932;25.904;2023-05-09T07:54:23;101105.19;;;14.05;90.55
8705;BME280;4389;41.932;25.904;2023-05-09T07:56:50;101117.06;;;14.10;90.19
8705;BME280;4389;41.932;25.904;2023-05-09T07:59:17;101123.63;;;14.16;89.24
8705;BME280;4389;41.932;25.904;2023-05-09T08:01:44;101117.22;;;14.18;89.83
8705;BME280;4389;41.932;25.904;2023-05-09T08:04:12;101117.63;;;14.23;89.50
8705;BME280;4389;41.932;25.904;2023-05-09T08:06:39;101113.13;;;14.24;88.95
8705;BME280;4389;41.932;25.904;2023-05-09T08:09:05;101110.63;;;14.32;89.50
8705;BME280;4389;41.932;25.904;2023-05-09T08:11:32;101116.16;;;14.48;88.72
8705;BME280;4389;41.932;25.904;2023-05-09T08:14:00;101118.31;;;14.35;88.39
8705;BME280;4389;41.932;25.904;2023-05-09T08:16:27;101116.06;;;14.40;87.70
8705;BME280;4389;41.932;25.904;2023-05-09T08:18:54;101122.38;;;14.39;87.55
8705;BME280;4389;41.932;25.904;2023-05-09T08:21:22;101119.72;;;14.39;87.00
8705;BME280;4389;41.932;25.904;2023-05-09T08:23:49;101123.19;;;14.39;87.59
8705;BME280;4389;41.932;25.904;2023-05-09T08:26:17;101109.72;;;14.50;88.02
8705;BME280;4389;41.932;25.904;2023-05-09T08:28:44;101117.69;;;14.60;87.14
8705;BME280;4389;41.932;25.904;2023-05-09T08:31:10;101116.13;;;14.57;85.66
8705;BME280;4389;41.932;25.904;2023-05-09T08:33:37;101120.47;;;14.58;85.72
8705;BME280;4389;41.932;25.904;2023-05-09T08:36:05;101123.25;;;14.66;85.69
8705;BME280;4389;41.932;25.904;2023-05-09T08:38:33;101118.03;;;14.74;85.24
8705;BME280;4389;41.932;25.904;2023-05-09T08:41:01;101118.22;;;14.90;85.24
8705;BME280;4389;41.932;25.904;2023-05-09T08:43:28;101120.75;;;14.92;83.53
8705;BME280;4389;41.932;25.904;2023-05-09T08:45:57;101121.34;;;14.86;84.51
8705;BME280;4389;41.932;25.904;2023-05-09T08:48:25;101119.22;;;14.89;84.46
8705;BME280;4389;41.932;25.904;2023-05-09T08:50:52;101115.41;;;14.92;84.36
8705;BME280;4389;41.932;25.904;2023-05-09T08:53:20;101115.66;;;14.98;85.66
8705;BME280;4389;41.932;25.904;2023-05-09T08:55:49;101122.34;;;15.12;83.76
8705;BME280;4389;41.932;25.904;2023-05-09T08:58:17;101118.09;;;15.19;82.73
8705;BME280;4389;41.932;25.904;2023-05-09T09:00:47;101119.31;;;15.24;83.35
8705;BME280;4389;41.932;25.904;2023-05-09T09:03:16;101114.94;;;15.33;81.39
8705;BME280;4389;41.932;25.904;2023-05-09T09:05:44;101112.03;;;15.44;80.91
8705;BME280;4389;41.932;25.904;2023-05-09T09:08:13;101105.03;;;15.78;80.97
8705;BME280;4389;41.932;25.904;2023-05-09T09:10:40;101110.16;;;15.89;80.39
8705;BME280;4389;41.932;25.904;2023-05-09T09:13:10;101109.22;;;15.80;78.83
8705;BME280;4389;41.932;25.904;2023-05-09T09:15:39;101104.25;;;16.03;78.56
8705;BME280;4389;41.932;25.904;2023-05-09T09:18:08;101112.31;;;16.11;76.92
8705;BME280;4389;41.932;25.904;2023-05-09T09:20:37;101115.03;;;16.19;77.16
8705;BME280;4389;41.932;25.904;2023-05-09T09:23:07;101112.00;;;16.14;77.17
8705;BME280;4389;41.932;25.904;2023-05-09T09:25:35;101107.44;;;16.06;78.16
8705;BME280;4389;41.932;25.904;2023-05-09T09:28:03;101107.38;;;15.98;77.60
8705;BME280;4389;41.932;25.904;2023-05-09T09:30:31;101104.88;;;15.97;79.26
8705;BME280;4389;41.932;25.904;2023-05-09T09:32:58;101106.97;;;16.11;78.82
8705;BME280;4389;41.932;25.904;2023-05-09T09:35:25;101102.13;;;16.32;77.51
8705;BME280;4389;41.932;25.904;2023-05-09T09:37:55;101103.00;;;16.66;76.38
8705;BME280;4389;41.932;25.904;2023-05-09T09:40:23;101106.16;;;16.61;74.84
8705;BME280;4389;41.932;25.904;2023-05-09T09:42:51;101099.94;;;16.86;74.94
8705;BME280;4389;41.932;25.904;2023-05-09T09:45:18;101098.66;;;16.98;74.79
8705;BME280;4389;41.932;25.904;2023-05-09T09:47:48;101105.22;;;17.12;74.17
8705;BME280;4389;41.932;25.904;2023-05-09T09:50:17;101109.94;;;17.34;73.68
8705;BME280;4389;41.932;25.904;2023-05-09T09:52:48;101106.69;;;17.56;70.27
8705;BME280;4389;41.932;25.904;2023-05-09T09:55:16;101094.16;;;17.56;70.91
8705;BME280;4389;41.932;25.904;2023-05-09T09:57:43;101102.69;;;17.68;68.63
8705;BME280;4389;41.932;25.904;2023-05-09T10:00:11;101095.66;;;17.91;68.72
8705;BME280;4389;41.932;25.904;2023-05-09T10:02:51;101090.09;;;18.24;67.32
8705;BME280;4389;41.932;25.904;2023-05-09T10:05:19;101100.25;;;18.69;65.28
8705;BME280;4389;41.932;25.904;2023-05-09T10:07:50;101097.41;;;19.08;64.34
8705;BME280;4389;41.932;25.904;2023-05-09T10:10:19;101102.53;;;18.88;64.12
8705;BME280;4389;41.932;25.904;2023-05-09T10:12:46;101089.94;;;18.88;62.74
8705;BME280;4389;41.932;25.904;2023-05-09T10:15:16;101088.44;;;18.93;62.45
8705;BME280;4389;41.932;25.904;2023-05-09T10:17:45;101092.75;;;19.02;63.67
8705;BME280;4389;41.932;25.904;2023-05-09T10:20:13;101082.13;;;18.71;63.48
8705;BME280;4389;41.932;25.904;2023-05-09T10:22:41;101088.94;;;18.35;65.68
8705;BME280;4389;41.932;25.904;2023-05-09T10:25:13;101076.91;;;18.23;67.12
8705;BME280;4389;41.932;25.904;2023-05-09T10:27:44;101080.22;;;18.25;66.63
8705;BME280;4389;41.932;25.904;2023-05-09T10:30:15;101078.56;;;18.08;65.53
8705;BME280;4389;41.932;25.904;2023-05-09T10:32:47;101080.72;;;18.28;65.49
8705;BME280;4389;41.932;25.904;2023-05-09T10:35:22;101077.38;;;18.26;65.01
8705;BME280;4389;41.932;25.904;2023-05-09T10:37:51;101076.38;;;18.27;65.80
8705;BME280;4389;41.932;25.904;2023-05-09T10:40:21;101075.53;;;18.51;64.51
8705;BME280;4389;41.932;25.904;2023-05-09T10:42:50;101072.53;;;18.38;63.96
8705;BME280;4389;41.932;25.904;2023-05-09T10:45:18;101075.91;;;17.84;68.24
8705;BME280;4389;41.932;25.904;2023-05-09T10:47:47;101077.97;;;17.24;70.96
8705;BME280;4389;41.932;25.904;2023-05-09T10:50:15;101075.66;;;17.29;68.88
8705;BME280;4389;41.932;25.904;2023-05-09T10:53:09;101070.16;;;17.23;69.86
8705;BME280;4389;41.932;25.904;2023-05-09T10:55:47;101060.94;;;17.33;69.47
8705;BME280;4389;41.932;25.904;2023-05-09T10:58:23;101077.34;;;17.30;70.65
8705;BME280;4389;41.932;25.904;2023-05-09T11:00:51;101074.81;;;17.29;69.40
8705;BME280;4389;41.932;25.904;2023-05-09T11:03:19;101079.50;;;17.35;68.62
8705;BME280;4389;41.932;25.904;2023-05-09T11:05:49;101079.22;;;17.38;68.22
8705;BME280;4389;41.932;25.904;2023-05-09T11:08:25;101081.53;;;17.33;68.01
8705;BME280;4389;41.932;25.904;2023-05-09T11:10:53;101091.88;;;17.36;67.63
8705;BME280;4389;41.932;25.904;2023-05-09T11:13:23;101085.91;;;17.42;67.70
8705;BME280;4389;41.932;25.904;2023-05-09T11:16:02;101079.91;;;17.48;67.23
8705;BME280;4389;41.932;25.904;2023-05-09T11:18:30;101080.59;;;17.66;66.27
8705;BME280;4389;41.932;25.904;2023-05-09T11:20:58;101080.25;;;17.77;66.88
8705;BME280;4389;41.932;25.904;2023-05-09T11:23:29;101081.59;;;17.97;66.03
8705;BME280;4389;41.932;25.904;2023-05-09T11:26:04;101087.09;;;18.03;65.69
8705;BME280;4389;41.932;25.904;2023-05-09T11:28:32;101082.59;;;17.72;67.18
8705;BME280;4389;41.932;25.904;2023-05-09T11:31:09;101086.78;;;17.50;67.65
8705;BME280;4389;41.932;25.904;2023-05-09T11:33:38;101085.75;;;17.51;67.35
8705;BME280;4389;41.932;25.904;2023-05-09T11:36:15;101083.25;;;17.42;67.69
8705;BME280;4389;41.932;25.904;2023-05-09T11:38:44;101076.81;;;17.27;67.11
8705;BME280;4389;41.932;25.904;2023-05-09T11:41:11;101071.75;;;17.08;68.86
8705;BME280;4389;41.932;25.904;2023-05-09T11:43:39;101076.06;;;16.93;69.70
8705;BME280;4389;41.932;25.904;2023-05-09T11:46:06;101068.38;;;16.90;70.44
8705;BME280;4389;41.932;25.904;2023-05-09T11:48:36;101073.00;;;16.80;69.47
8705;BME280;4389;41.932;25.904;2023-05-09T11:51:04;101076.03;;;16.85;69.79
8705;BME280;4389;41.932;25.904;2023-05-09T11:53:31;101063.66;;;16.84;70.39
8705;BME280;4389;41.932;25.904;2023-05-09T11:56:02;101070.03;;;16.91;69.48
8705;BME280;4389;41.932;25.904;2023-05-09T11:58:30;101066.34;;;16.92;70.93
8705;BME280;4389;41.932;25.904;2023-05-09T12:00:57;101066.22;;;16.93;69.81
8705;BME280;4389;41.932;25.904;2023-05-09T12:03:24;101063.03;;;16.90;68.83
8705;BME280;4389;41.932;25.904;2023-05-09T12:05:53;101066.34;;;16.92;69.56
8705;BME280;4389;41.932;25.904;2023-05-09T12:08:20;101063.41;;;17.03;69.79
8705;BME280;4389;41.932;25.904;2023-05-09T12:10:49;101059.44;;;17.23;69.01
8705;BME280;4389;41.932;25.904;2023-05-09T12:13:17;101056.41;;;17.18;69.05
8705;BME280;4389;41.932;25.904;2023-05-09T12:15:44;101061.44;;;17.21;68.49
8705;BME280;4389;41.932;25.904;2023-05-09T12:18:11;101051.72;;;17.20;68.90
8705;BME280;4389;41.932;25.904;2023-05-09T12:20:39;101053.38;;;17.13;68.06
8705;BME280;4389;41.932;25.904;2023-05-09T12:23:08;101046.56;;;17.26;68.26
8705;BME280;4389;41.932;25.904;2023-05-09T12:25:35;101054.75;;;17.17;69.85
8705;BME280;4389;41.932;25.904;2023-05-09T12:28:02;101044.38;;;17.30;69.84
8705;BME280;4389;41.932;25.904;2023-05-09T12:30:31;101051.41;;;17.23;68.10
8705;BME280;4389;41.932;25.904;2023-05-09T12:33:06;101041.88;;;17.12;68.92
8705;BME280;4389;41.932;25.904;2023-05-09T12:35:36;101049.69;;;16.98;71.55
8705;BME280;4389;41.932;25.904;2023-05-09T12:38:03;101045.94;;;16.83;70.74
8705;BME280;4389;41.932;25.904;2023-05-09T12:40:30;101036.53;;;16.71;70.36
8705;BME280;4389;41.932;25.904;2023-05-09T12:42:57;101032.41;;;16.43;72.53
8705;BME280;4389;41.932;25.904;2023-05-09T12:45:27;101034.75;;;16.38;72.61
8705;BME280;4389;41.932;25.904;2023-05-09T12:47:56;101031.63;;;16.50;72.59
8705;BME280;4389;41.932;25.904;2023-05-09T12:50:32;101039.94;;;16.47;73.14
8705;BME280;4389;41.932;25.904;2023-05-09T12:53:01;101036.81;;;16.52;72.52
8705;BME280;4389;41.932;25.904;2023-05-09T12:55:29;101033.13;;;16.45;73.14
8705;BME280;4389;41.932;25.904;2023-05-09T12:57:57;101029.59;;;16.44;74.19
8705;BME280;4389;41.932;25.904;2023-05-09T13:00:24;101024.53;;;16.67;72.88
8705;BME280;4389;41.932;25.904;2023-05-09T13:02:51;101026.88;;;16.78;70.67